PAQT

Nuiqsut Airport

Airport
ICAO code
PAQT
IATA Code
NUI
Summary
ICAO Region
NAM
ICAO Territory
Location

, Alaska

Serving
Nuiqsut
Elevation
38 ft
Coordinates
70° 12' 36" N , 151° 0' 20" W
Metar
PAQT 300653Z AUTO 24004KT 10SM OVC045 02/00 A3003 RMK AO2 SLP169 T00220000 TSNO

Runways

Designator Length Width Surface Rops
4/22 1324 27 GVL Yes/Yes

Airport map

Aerial View

SKYbrary Partners:

Safety knowledge contributed by: